This is the latest recevied weather packets stored in our database for station/object WA4IKQ. If no packets are shown the sender has not sent any weather packets the latest 10 day(s).
| Time | Temp. | Humidity | Pressure | Rain* | Wind** | Luminosity | Snow |
|---|---|---|---|---|---|---|---|
| 1777685895 | 27.78° C | 66% | 1010.9 hPa | 0 mm | 0.45 m/s, 8° | - | - |
| 1777685609 | 27.78° C | 66% | 1010.9 hPa | 0 mm | 0.45 m/s, 8° | - | - |
| 1777685203 | 27.78° C | 64% | 1010.7 hPa | 0 mm | 1.34 m/s, 48° | - | - |
| 1777685015 | 27.78° C | 64% | 1010.7 hPa | 0 mm | 1.34 m/s, 48° | - | - |
| 1777684895 | 28.33° C | 64% | 1010.7 hPa | 0 mm | 0.89 m/s, 23° | - | - |
| 1777684108 | 28.33° C | 63% | 1010.7 hPa | 0 mm | 0.89 m/s, 356° | - | - |
| 1777683763 | 28.33° C | 63% | 1010.6 hPa | 0 mm | 0.89 m/s, 342° | - | - |
| 1777683508 | 28.33° C | 63% | 1010.6 hPa | 0 mm | 0.89 m/s, 342° | - | - |
| 1777683107 | 28.89° C | 63% | 1010.5 hPa | 0 mm | 1.79 m/s, 35° | - | - |
| 1777682909 | 28.89° C | 63% | 1010.5 hPa | 0 mm | 1.79 m/s, 35° | - | - |
| 1777682326 | 29.44° C | 61% | 1010 hPa | 0 mm | 0.89 m/s, 53° | - | - |
| 1777682306 | 28.89° C | 61% | 1010.2 hPa | 0 mm | 1.79 m/s, 329° | - | - |
| 1777682260 | 29.44° C | 61% | 1010 hPa | 0 mm | 0.89 m/s, 53° | - | - |
| 1777682014 | 29.44° C | 61% | 1010 hPa | 0 mm | 0.89 m/s, 53° | - | - |
| 1777681527 | 29.44° C | 59% | 1009.8 hPa | 0 mm | 2.68 m/s, 35° | - | - |
| 1777681318 | 30° C | 58% | 1009.7 hPa | 0 mm | 1.79 m/s, 37° | - | - |
| 1777681107 | 30° C | 58% | 1009.7 hPa | 0 mm | 1.79 m/s, 37° | - | - |
| 1777680923 | 30.56° C | 56% | 1009.7 hPa | 0 mm | 0.89 m/s, 332° | - | - |
| 1777680809 | 30.56° C | 56% | 1009.7 hPa | 0 mm | 0.89 m/s, 332° | - | - |
| 1777680464 | 30.56° C | 45% | 1009.5 hPa | 0 mm | 1.79 m/s, 298° | - | - |
| 1777679823 | 31.11° C | 46% | 1009.4 hPa | 0 mm | 0.45 m/s, 284° | - | - |
| 1777679606 | 31.11° C | 46% | 1009.4 hPa | 0 mm | 0.45 m/s, 284° | - | - |
| 1777679410 | 31.11° C | 45% | 1009.4 hPa | 0 mm | 0 m/s | - | - |
| 1777679306 | 31.11° C | 45% | 1009.4 hPa | 0 mm | 0 m/s | - | - |
| 1777679183 | 31.11° C | 45% | 1009.3 hPa | 0 mm | 0.89 m/s, 257° | - | - |
* Rain latest hour (hover to see other rain measurements)
** Current wind speed in m/s (hover to see current wind gust speed)